createdAt,value
2022-12-27T00:00:23.811Z,943.36
2022-12-27T00:01:24.244Z,943.36
2022-12-27T00:02:25.315Z,943.32
2022-12-27T00:03:25.904Z,943.32
2022-12-27T00:04:26.846Z,943.31
2022-12-27T00:05:27.088Z,943.33
2022-12-27T00:06:27.187Z,943.31
2022-12-27T00:07:28.097Z,943.35
2022-12-27T00:08:29.042Z,943.35
2022-12-27T00:09:29.680Z,943.36
2022-12-27T00:10:30.616Z,943.37
2022-12-27T00:11:31.221Z,943.38
2022-12-27T00:12:31.909Z,943.39
2022-12-27T00:13:32.844Z,943.41
2022-12-27T00:14:33.496Z,943.43
2022-12-27T00:15:33.803Z,943.51
2022-12-27T00:16:34.525Z,943.62
2022-12-27T00:17:35.172Z,943.58
2022-12-27T00:18:35.707Z,943.47
2022-12-27T00:19:36.678Z,943.48
2022-12-27T00:20:37.333Z,943.47
2022-12-27T00:21:37.562Z,943.49
2022-12-27T00:22:37.763Z,943.47
2022-12-27T00:23:38.257Z,943.51
2022-12-27T00:24:38.483Z,943.53
2022-12-27T00:25:38.985Z,943.5
2022-12-27T00:26:39.517Z,943.5
2022-12-27T00:27:39.752Z,943.51
2022-12-27T00:28:39.967Z,943.55
2022-12-27T00:29:40.191Z,943.61
2022-12-27T00:30:41.140Z,943.62
2022-12-27T00:31:42.113Z,943.62
2022-12-27T00:32:42.904Z,943.66
2022-12-27T00:33:43.131Z,943.67
2022-12-27T00:34:44.133Z,943.69
2022-12-27T00:35:45.078Z,943.7
2022-12-27T00:36:45.675Z,943.74
2022-12-27T00:37:45.916Z,943.74
2022-12-27T00:38:46.415Z,943.79
2022-12-27T00:39:47.326Z,943.76
2022-12-27T00:40:47.989Z,943.75
2022-12-27T00:41:48.229Z,943.74
2022-12-27T00:42:49.144Z,943.73
2022-12-27T00:43:49.501Z,943.76
2022-12-27T00:44:50.444Z,943.75
2022-12-27T00:45:51.029Z,943.73
2022-12-27T00:46:51.668Z,943.75
2022-12-27T00:47:52.033Z,943.7
2022-12-27T00:48:52.996Z,943.7
2022-12-27T00:49:53.306Z,943.77
2022-12-27T00:50:53.571Z,943.77
2022-12-27T00:51:54.517Z,943.81
2022-12-27T00:52:55.191Z,943.93
2022-12-27T00:53:55.731Z,944.04
2022-12-27T00:54:56.112Z,944.05
2022-12-27T00:55:56.643Z,944.1
2022-12-27T00:56:57.583Z,944.12
2022-12-27T00:57:57.805Z,944.13
2022-12-27T00:58:58.026Z,944.2
2022-12-27T00:59:59.942Z,944.29
2022-12-27T01:00:59.648Z,944.26
2022-12-27T01:02:00.134Z,944.26
2022-12-27T01:03:00.254Z,944.29
2022-12-27T01:04:00.477Z,944.32
2022-12-27T01:05:01.408Z,944.38
2022-12-27T01:06:02.443Z,944.39
2022-12-27T01:07:03.477Z,944.42
2022-12-27T01:08:03.668Z,944.42
2022-12-27T01:09:03.901Z,944.5
2022-12-27T01:10:04.407Z,944.48
2022-12-27T01:11:05.039Z,944.5
2022-12-27T01:12:05.403Z,944.47
2022-12-27T01:13:05.621Z,944.52
2022-12-27T01:14:06.303Z,944.53
2022-12-27T01:15:07.288Z,944.5
2022-12-27T01:16:07.587Z,944.52
2022-12-27T01:17:08.411Z,944.53
2022-12-27T01:18:08.915Z,944.56
2022-12-27T01:19:09.147Z,944.56
2022-12-27T01:20:09.376Z,944.53
2022-12-27T01:21:09.605Z,944.66
2022-12-27T01:22:09.865Z,944.74
2022-12-27T01:23:10.842Z,944.6
2022-12-27T01:24:11.377Z,944.54
2022-12-27T01:25:12.296Z,944.58
2022-12-27T01:26:12.787Z,944.63
2022-12-27T01:27:13.654Z,944.66
2022-12-27T01:28:14.595Z,944.69
2022-12-27T01:29:15.233Z,944.77
2022-12-27T01:30:15.894Z,944.71
2022-12-27T01:31:16.444Z,944.73
2022-12-27T01:32:16.890Z,944.63
2022-12-27T01:33:17.839Z,944.69
2022-12-27T01:34:18.077Z,944.73
2022-12-27T01:35:18.734Z,944.77
2022-12-27T01:36:18.948Z,944.73
2022-12-27T01:37:19.335Z,944.69
2022-12-27T01:38:19.985Z,944.7
2022-12-27T01:39:20.625Z,944.6
2022-12-27T01:40:21.544Z,944.67
2022-12-27T01:41:21.773Z,944.6
2022-12-27T01:42:21.997Z,944.62
2022-12-27T01:43:22.214Z,944.62
2022-12-27T01:44:22.839Z,944.66
2022-12-27T01:45:23.490Z,944.64
2022-12-27T01:46:23.660Z,944.67
2022-12-27T01:47:24.003Z,944.69
2022-12-27T01:48:24.937Z,944.67
2022-12-27T01:49:25.448Z,944.67
2022-12-27T01:50:25.706Z,944.68
2022-12-27T01:51:26.657Z,944.61
2022-12-27T01:52:26.892Z,944.64
2022-12-27T01:53:27.514Z,944.69
2022-12-27T01:54:28.445Z,944.76
2022-12-27T01:55:28.953Z,944.75
2022-12-27T01:56:29.870Z,944.76
2022-12-27T01:57:30.871Z,944.76
2022-12-27T01:58:31.926Z,944.81
2022-12-27T01:59:32.565Z,944.8
2022-12-27T02:00:33.459Z,944.76
2022-12-27T02:01:33.674Z,944.83
2022-12-27T02:02:34.313Z,944.84
2022-12-27T02:03:34.403Z,944.81
2022-12-27T02:04:34.656Z,944.78
2022-12-27T02:05:35.599Z,944.81
2022-12-27T02:06:36.587Z,944.77
2022-12-27T02:07:36.940Z,944.81
2022-12-27T02:08:37.592Z,944.77
2022-12-27T02:09:38.499Z,944.79
2022-12-27T02:10:38.795Z,944.82
2022-12-27T02:11:39.711Z,944.79
2022-12-27T02:12:40.345Z,944.81
2022-12-27T02:13:40.561Z,944.8
2022-12-27T02:14:41.501Z,944.79
2022-12-27T02:15:42.014Z,944.85
2022-12-27T02:16:42.982Z,944.84
2022-12-27T02:17:43.213Z,944.78
2022-12-27T02:18:43.417Z,944.8
2022-12-27T02:19:44.042Z,944.81
2022-12-27T02:20:44.289Z,944.78
2022-12-27T02:21:44.792Z,944.78
2022-12-27T02:22:45.754Z,944.76
2022-12-27T02:23:46.386Z,944.7
2022-12-27T02:24:46.834Z,944.71
2022-12-27T02:25:47.869Z,944.8
2022-12-27T02:26:48.260Z,944.9
2022-12-27T02:27:49.279Z,944.97
2022-12-27T02:28:49.482Z,944.98
2022-12-27T02:29:50.410Z,945.06
2022-12-27T02:30:50.647Z,945.05
2022-12-27T02:31:51.467Z,945.11
2022-12-27T02:32:52.412Z,945.15
2022-12-27T02:33:53.326Z,945.23
2022-12-27T02:34:54.294Z,945.23
2022-12-27T02:35:54.549Z,945.29
2022-12-27T02:36:55.450Z,945.31
2022-12-27T02:37:55.937Z,945.31
2022-12-27T02:38:56.861Z,945.41
2022-12-27T02:39:57.090Z,945.42
2022-12-27T02:40:57.285Z,945.44
2022-12-27T02:41:57.634Z,945.51
2022-12-27T02:42:57.877Z,945.5
2022-12-27T02:43:58.119Z,945.48
2022-12-27T02:44:58.766Z,945.46
2022-12-27T02:45:58.997Z,945.5
2022-12-27T02:46:59.995Z,945.6
2022-12-27T02:48:00.374Z,945.48
2022-12-27T02:49:01.036Z,945.49
2022-12-27T02:50:01.283Z,945.54
2022-12-27T02:51:01.574Z,945.49
2022-12-27T02:52:01.806Z,945.58
2022-12-27T02:53:02.782Z,945.63
2022-12-27T02:54:03.306Z,945.57
2022-12-27T02:55:04.242Z,945.52
2022-12-27T02:56:04.906Z,945.55
2022-12-27T02:57:05.142Z,945.58
2022-12-27T02:58:05.496Z,945.73
2022-12-27T02:59:06.432Z,945.75
2022-12-27T03:00:06.675Z,945.68
2022-12-27T03:01:07.412Z,945.68
2022-12-27T03:02:08.585Z,945.71
2022-12-27T03:03:09.188Z,945.8
2022-12-27T03:04:10.074Z,945.76
2022-12-27T03:05:11.007Z,945.82
2022-12-27T03:06:11.977Z,945.86
2022-12-27T03:07:12.163Z,945.87
2022-12-27T03:08:13.257Z,945.87
2022-12-27T03:09:14.168Z,945.9
2022-12-27T03:10:14.361Z,945.87
2022-12-27T03:11:15.286Z,945.86
2022-12-27T03:12:15.789Z,945.94
2022-12-27T03:13:16.433Z,945.9
2022-12-27T03:14:17.331Z,945.85
2022-12-27T03:15:18.240Z,945.86
2022-12-27T03:16:19.297Z,945.91
2022-12-27T03:17:19.934Z,945.92
2022-12-27T03:18:20.949Z,945.87
2022-12-27T03:19:21.581Z,945.88
2022-12-27T03:20:22.523Z,945.86
2022-12-27T03:21:23.486Z,945.86
2022-12-27T03:22:23.967Z,945.87
2022-12-27T03:23:24.935Z,945.87
2022-12-27T03:24:25.145Z,945.89
2022-12-27T03:25:25.650Z,945.96
2022-12-27T03:26:26.565Z,946.01
2022-12-27T03:27:27.504Z,946
2022-12-27T03:28:28.540Z,945.95
2022-12-27T03:29:28.744Z,945.86
2022-12-27T03:30:29.386Z,945.9
2022-12-27T03:31:29.787Z,945.93
2022-12-27T03:32:30.788Z,945.99
2022-12-27T03:33:31.012Z,945.99
2022-12-27T03:34:32.115Z,946.03
2022-12-27T03:35:32.372Z,946.04
2022-12-27T03:36:33.058Z,946.09
2022-12-27T03:37:33.984Z,946.1
2022-12-27T03:38:34.320Z,946.18
2022-12-27T03:39:34.522Z,946.22
2022-12-27T03:40:35.171Z,946.31
2022-12-27T03:41:36.093Z,946.25
2022-12-27T03:42:37.039Z,946.26
2022-12-27T03:43:37.534Z,946.35
2022-12-27T03:44:37.726Z,946.4
2022-12-27T03:45:38.653Z,946.43
2022-12-27T03:46:39.061Z,946.44
2022-12-27T03:47:39.928Z,946.43
2022-12-27T03:48:40.808Z,946.48
2022-12-27T03:49:41.340Z,946.52
2022-12-27T03:50:41.579Z,946.53
2022-12-27T03:51:41.868Z,946.53
2022-12-27T03:52:41.900Z,946.56
2022-12-27T03:53:42.845Z,946.52
2022-12-27T03:54:43.491Z,946.58
2022-12-27T03:55:44.421Z,946.61
2022-12-27T03:56:44.918Z,946.62
2022-12-27T03:57:45.159Z,946.64
2022-12-27T03:58:45.424Z,946.67
2022-12-27T03:59:45.554Z,946.67
2022-12-27T04:00:46.301Z,946.74
2022-12-27T04:01:47.035Z,946.72
2022-12-27T04:02:47.468Z,946.77
2022-12-27T04:03:47.608Z,946.8
2022-12-27T04:04:48.513Z,946.85
2022-12-27T04:05:48.773Z,946.84
2022-12-27T04:06:49.012Z,946.84
2022-12-27T04:07:49.668Z,946.76
2022-12-27T04:08:50.098Z,946.8
2022-12-27T04:09:50.305Z,946.81
2022-12-27T04:10:50.962Z,946.88
2022-12-27T04:11:51.868Z,946.85
2022-12-27T04:12:52.367Z,946.8
2022-12-27T04:13:53.302Z,946.85
2022-12-27T04:14:53.517Z,946.8
2022-12-27T04:15:54.199Z,946.83
2022-12-27T04:16:54.620Z,946.85
2022-12-27T04:17:54.878Z,946.89
2022-12-27T04:18:55.671Z,946.89
2022-12-27T04:19:55.883Z,946.92
2022-12-27T04:20:56.846Z,946.85
2022-12-27T04:21:57.095Z,946.91
2022-12-27T04:22:58.032Z,946.91
2022-12-27T04:23:58.568Z,946.9
2022-12-27T04:24:59.502Z,946.89
2022-12-27T04:25:59.728Z,946.89
2022-12-27T04:26:59.960Z,946.9
2022-12-27T04:28:00.881Z,946.96
2022-12-27T04:29:01.910Z,946.93
2022-12-27T04:30:02.538Z,946.97
2022-12-27T04:31:03.093Z,946.97
2022-12-27T04:32:03.790Z,947.01
2022-12-27T04:33:04.765Z,947.05
2022-12-27T04:34:05.713Z,947.07
2022-12-27T04:35:06.218Z,947.07
2022-12-27T04:36:06.725Z,947.07
2022-12-27T04:37:06.984Z,947.04
2022-12-27T04:38:07.205Z,947.06
2022-12-27T04:39:07.323Z,947.11
2022-12-27T04:40:08.261Z,947.14
2022-12-27T04:41:08.913Z,947.16
2022-12-27T04:42:09.581Z,947.18
2022-12-27T04:43:09.816Z,947.18
2022-12-27T04:44:10.012Z,947.14
2022-12-27T04:45:15.058Z,947.12
2022-12-27T04:46:10.374Z,947.14
2022-12-27T04:47:10.666Z,947.19
2022-12-27T04:48:10.892Z,947.21
2022-12-27T04:49:11.957Z,947.24
2022-12-27T04:50:12.587Z,947.31
2022-12-27T04:51:13.246Z,947.29
2022-12-27T04:52:13.494Z,947.3
2022-12-27T04:53:13.687Z,947.22
2022-12-27T04:54:14.665Z,947.27
2022-12-27T04:55:15.288Z,947.27
2022-12-27T04:56:15.913Z,947.27
2022-12-27T04:57:16.832Z,947.3
2022-12-27T04:58:17.509Z,947.28
2022-12-27T04:59:18.319Z,947.33
2022-12-27T05:00:18.809Z,947.35
2022-12-27T05:01:19.651Z,947.35
2022-12-27T05:02:20.360Z,947.34
2022-12-27T05:03:20.805Z,947.33
2022-12-27T05:04:21.279Z,947.3
2022-12-27T05:05:22.228Z,947.36
2022-12-27T05:06:23.173Z,947.4
2022-12-27T05:07:23.716Z,947.39
2022-12-27T05:08:24.220Z,947.36
2022-12-27T05:09:24.978Z,947.39
2022-12-27T05:10:25.197Z,947.41
2022-12-27T05:11:26.141Z,947.41
2022-12-27T05:12:26.783Z,947.37
2022-12-27T05:13:27.421Z,947.4
2022-12-27T05:14:27.632Z,947.4
2022-12-27T05:15:28.554Z,947.4
2022-12-27T05:16:28.901Z,947.43
2022-12-27T05:17:29.565Z,947.44
2022-12-27T05:18:29.821Z,947.47
2022-12-27T05:19:30.025Z,947.46
2022-12-27T05:20:31.003Z,947.45
2022-12-27T05:21:31.786Z,947.43
2022-12-27T05:22:32.747Z,947.45
2022-12-27T05:23:33.411Z,947.43
2022-12-27T05:24:34.434Z,947.39
2022-12-27T05:25:34.659Z,947.41
2022-12-27T05:26:34.879Z,947.43
2022-12-27T05:27:35.821Z,947.42
2022-12-27T05:28:36.742Z,947.46
2022-12-27T05:29:37.779Z,947.47
2022-12-27T05:30:38.696Z,947.5
2022-12-27T05:31:39.822Z,947.52
2022-12-27T05:32:40.509Z,947.5
2022-12-27T05:33:40.737Z,947.51
2022-12-27T05:34:41.009Z,947.48
2022-12-27T05:35:41.242Z,947.48
2022-12-27T05:36:41.491Z,947.47
2022-12-27T05:37:42.022Z,947.48
2022-12-27T05:38:42.553Z,947.53
2022-12-27T05:39:43.632Z,947.54
2022-12-27T05:40:44.597Z,947.57
2022-12-27T05:41:45.598Z,947.56
2022-12-27T05:42:46.209Z,947.61
2022-12-27T05:43:47.134Z,947.6
2022-12-27T05:44:47.463Z,947.63
2022-12-27T05:45:47.974Z,947.53
2022-12-27T05:46:48.623Z,947.55
2022-12-27T05:47:49.178Z,947.63
2022-12-27T05:48:49.946Z,947.64
2022-12-27T05:49:50.734Z,947.67
2022-12-27T05:50:51.690Z,947.69
2022-12-27T05:51:52.205Z,947.73
2022-12-27T05:52:52.449Z,947.77
2022-12-27T05:53:52.934Z,947.8
2022-12-27T05:54:53.211Z,947.82
2022-12-27T05:55:53.439Z,947.8
2022-12-27T05:56:53.950Z,947.81
2022-12-27T05:57:54.172Z,947.86
2022-12-27T05:58:54.373Z,947.78
2022-12-27T05:59:55.093Z,947.83
2022-12-27T06:00:56.064Z,947.82
2022-12-27T06:01:56.536Z,947.77
2022-12-27T06:02:56.566Z,947.77
2022-12-27T06:03:57.461Z,947.72
2022-12-27T06:04:57.830Z,947.75
2022-12-27T06:05:58.467Z,947.72
2022-12-27T06:06:58.731Z,947.7
2022-12-27T06:07:58.949Z,947.7
2022-12-27T06:08:59.153Z,947.71
2022-12-27T06:10:00.199Z,947.72
2022-12-27T06:11:00.886Z,947.73
2022-12-27T06:12:01.385Z,947.73
2022-12-27T06:13:02.311Z,947.77
2022-12-27T06:14:02.586Z,947.74
2022-12-27T06:15:02.931Z,947.7
2022-12-27T06:16:03.213Z,947.71
2022-12-27T06:17:03.858Z,947.7
2022-12-27T06:18:04.770Z,947.74
2022-12-27T06:19:05.013Z,947.69
2022-12-27T06:20:05.265Z,947.7
2022-12-27T06:21:06.206Z,947.68
2022-12-27T06:22:06.528Z,947.67
2022-12-27T06:23:06.744Z,947.62
2022-12-27T06:24:07.679Z,947.58
2022-12-27T06:25:10.876Z,947.6
2022-12-27T06:26:08.661Z,947.59
2022-12-27T06:27:09.179Z,947.58
2022-12-27T06:28:10.101Z,947.56
2022-12-27T06:29:11.023Z,947.58
2022-12-27T06:30:11.479Z,947.52
2022-12-27T06:31:12.011Z,947.54
2022-12-27T06:32:12.532Z,947.5
2022-12-27T06:33:12.763Z,947.51
2022-12-27T06:34:13.430Z,947.53
2022-12-27T06:35:13.671Z,947.51
2022-12-27T06:36:14.621Z,947.46
2022-12-27T06:37:15.144Z,947.46
2022-12-27T06:38:15.411Z,947.42
2022-12-27T06:39:16.324Z,947.44
2022-12-27T06:40:16.978Z,947.48
2022-12-27T06:41:17.516Z,947.46
2022-12-27T06:42:17.734Z,947.45
2022-12-27T06:43:18.658Z,947.46
2022-12-27T06:44:19.588Z,947.51
2022-12-27T06:45:19.852Z,947.5
2022-12-27T06:46:20.743Z,947.56
2022-12-27T06:47:21.552Z,947.54
2022-12-27T06:48:22.220Z,947.59
2022-12-27T06:49:22.650Z,947.59
2022-12-27T06:50:23.047Z,947.53
2022-12-27T06:51:23.538Z,947.56
2022-12-27T06:52:23.795Z,947.58
2022-12-27T06:53:24.029Z,947.59
2022-12-27T06:54:24.248Z,947.61
2022-12-27T06:55:25.298Z,947.61
2022-12-27T06:56:26.263Z,947.62
2022-12-27T06:57:26.892Z,947.65
2022-12-27T06:58:27.541Z,947.65
2022-12-27T06:59:28.474Z,947.65
2022-12-27T07:00:29.403Z,947.61
2022-12-27T07:01:30.181Z,947.64
2022-12-27T07:02:30.297Z,947.65
2022-12-27T07:03:30.661Z,947.64
2022-12-27T07:04:31.617Z,947.66
2022-12-27T07:05:31.900Z,947.68
2022-12-27T07:06:32.130Z,947.7
2022-12-27T07:07:32.641Z,947.71
2022-12-27T07:08:33.168Z,947.66
2022-12-27T07:09:33.709Z,947.65
2022-12-27T07:10:34.385Z,947.66
2022-12-27T07:11:35.306Z,947.61
2022-12-27T07:12:36.869Z,947.65
2022-12-27T07:13:35.956Z,947.64
2022-12-27T07:14:36.256Z,947.62
2022-12-27T07:15:37.307Z,947.63
2022-12-27T07:16:37.605Z,947.63
2022-12-27T07:17:37.773Z,947.58
2022-12-27T07:18:38.690Z,947.58
2022-12-27T07:19:39.269Z,947.61
2022-12-27T07:20:39.574Z,947.64
2022-12-27T07:21:40.493Z,947.65
2022-12-27T07:22:40.741Z,947.62
2022-12-27T07:23:41.414Z,947.6
2022-12-27T07:24:42.083Z,947.63
2022-12-27T07:25:42.302Z,947.66
2022-12-27T07:26:43.237Z,947.68
2022-12-27T07:27:44.142Z,947.7
2022-12-27T07:28:44.780Z,947.71
2022-12-27T07:29:45.800Z,947.7
2022-12-27T07:30:45.541Z,947.7
2022-12-27T07:31:45.842Z,947.74
2022-12-27T07:32:46.227Z,947.73
2022-12-27T07:33:46.938Z,947.77
2022-12-27T07:34:47.219Z,947.8
2022-12-27T07:35:47.736Z,947.78
2022-12-27T07:36:48.659Z,947.77
2022-12-27T07:37:48.907Z,947.79
2022-12-27T07:38:49.595Z,947.84
2022-12-27T07:39:50.100Z,947.87
2022-12-27T07:40:50.394Z,947.86
2022-12-27T07:41:51.333Z,947.9
2022-12-27T07:42:51.480Z,947.84
2022-12-27T07:43:51.993Z,947.91
2022-12-27T07:44:52.496Z,947.86
2022-12-27T07:45:53.217Z,947.86
2022-12-27T07:46:53.650Z,947.91
2022-12-27T07:47:54.577Z,947.92
2022-12-27T07:48:55.533Z,947.89
2022-12-27T07:49:56.156Z,947.89
2022-12-27T07:50:57.126Z,947.91
2022-12-27T07:51:57.457Z,947.86
2022-12-27T07:52:58.071Z,947.88
2022-12-27T07:53:58.429Z,947.9
2022-12-27T07:54:58.919Z,947.86
2022-12-27T07:55:59.182Z,947.88
2022-12-27T07:56:59.354Z,947.85
2022-12-27T07:57:59.896Z,947.88
2022-12-27T07:59:00.413Z,947.87
2022-12-27T08:00:00.664Z,947.89
2022-12-27T08:01:01.716Z,947.88
2022-12-27T08:02:02.308Z,947.87
2022-12-27T08:03:03.252Z,947.82
2022-12-27T08:04:03.819Z,947.86
2022-12-27T08:05:04.801Z,947.84
2022-12-27T08:06:05.023Z,947.81
2022-12-27T08:07:05.231Z,947.87
2022-12-27T08:08:05.896Z,947.87
2022-12-27T08:09:06.946Z,947.91
2022-12-27T08:10:07.276Z,947.87
2022-12-27T08:11:08.161Z,947.86
2022-12-27T08:12:09.073Z,947.9
2022-12-27T08:13:10.050Z,947.91
2022-12-27T08:14:10.289Z,947.93
2022-12-27T08:15:11.209Z,947.9
2022-12-27T08:16:11.410Z,947.87
2022-12-27T08:17:12.083Z,947.86
2022-12-27T08:18:13.052Z,947.86
2022-12-27T08:19:13.710Z,947.84
2022-12-27T08:20:14.399Z,947.87
2022-12-27T08:21:15.449Z,947.82
2022-12-27T08:22:15.946Z,947.84
2022-12-27T08:23:16.219Z,947.85
2022-12-27T08:24:16.471Z,947.92
2022-12-27T08:25:16.696Z,947.93
2022-12-27T08:26:16.946Z,947.9
2022-12-27T08:27:17.919Z,947.94
2022-12-27T08:28:18.857Z,947.97
2022-12-27T08:29:19.367Z,947.96
2022-12-27T08:30:19.588Z,947.92
2022-12-27T08:31:19.706Z,947.97
2022-12-27T08:32:20.778Z,947.96
2022-12-27T08:33:20.996Z,947.99
2022-12-27T08:34:21.923Z,948.02
2022-12-27T08:35:51.337Z,948.05
2022-12-27T08:36:56.078Z,948.06
2022-12-27T08:37:55.593Z,948.05
2022-12-27T08:38:55.871Z,948.05
2022-12-27T08:40:02.455Z,948.1
2022-12-27T08:40:57.583Z,948.16
2022-12-27T08:41:58.069Z,948.12
2022-12-27T08:42:58.309Z,948.12
2022-12-27T08:43:59.297Z,948.11
2022-12-27T08:45:00.224Z,948.09
2022-12-27T08:46:01.277Z,948.11
2022-12-27T08:47:02.207Z,948.09
2022-12-27T08:48:02.939Z,948.17
2022-12-27T08:49:03.249Z,948.16
2022-12-27T08:50:03.480Z,948.17
2022-12-27T08:51:08.954Z,948.15
2022-12-27T08:52:18.708Z,948.17
2022-12-27T08:53:19.191Z,948.17
2022-12-27T08:54:19.585Z,948.14
2022-12-27T08:55:19.852Z,948.14
2022-12-27T08:56:20.109Z,948.16
2022-12-27T08:57:20.624Z,948.15
2022-12-27T08:58:21.123Z,948.1
2022-12-27T08:59:21.350Z,948.13
2022-12-27T09:00:21.878Z,948.13
2022-12-27T09:01:22.497Z,948.19
2022-12-27T09:02:23.443Z,948.19
2022-12-27T09:03:23.774Z,948.18
2022-12-27T09:04:23.948Z,948.21
2022-12-27T09:05:24.459Z,948.16
2022-12-27T09:06:25.439Z,948.13
2022-12-27T09:07:26.089Z,948.16
2022-12-27T09:08:27.063Z,948.17
2022-12-27T09:09:27.308Z,948.14
2022-12-27T09:10:27.969Z,948.15
2022-12-27T09:11:28.469Z,948.14
2022-12-27T09:12:28.856Z,948.15
2022-12-27T09:13:29.369Z,948.16
2022-12-27T09:14:29.607Z,948.24
2022-12-27T09:15:30.655Z,948.23
2022-12-27T09:16:31.040Z,948.3
2022-12-27T09:17:31.622Z,948.3
2022-12-27T09:18:32.147Z,948.32
2022-12-27T09:19:32.292Z,948.25
2022-12-27T09:20:32.784Z,948.27
2022-12-27T09:21:33.045Z,948.31
2022-12-27T09:22:34.082Z,948.31
2022-12-27T09:23:35.046Z,948.38
2022-12-27T09:24:35.303Z,948.35
2022-12-27T09:25:35.631Z,948.36
2022-12-27T09:26:36.071Z,948.41
2022-12-27T09:27:37.064Z,948.41
2022-12-27T09:28:38.048Z,948.41
2022-12-27T09:29:41.746Z,948.45
2022-12-27T09:30:39.845Z,948.4
2022-12-27T09:31:39.956Z,948.46
2022-12-27T09:32:40.162Z,948.46
2022-12-27T09:33:40.679Z,948.44
2022-12-27T09:34:41.637Z,948.47
2022-12-27T09:35:42.578Z,948.5
2022-12-27T09:36:43.083Z,948.5
2022-12-27T09:37:44.128Z,948.48
2022-12-27T09:38:44.381Z,948.49
2022-12-27T09:39:44.611Z,948.48
2022-12-27T09:40:44.888Z,948.46
2022-12-27T09:42:44.811Z,948.4
2022-12-27T09:44:04.556Z,948.4
2022-12-27T09:45:04.764Z,948.4
2022-12-27T09:46:05.275Z,948.42
2022-12-27T09:47:05.450Z,948.47
2022-12-27T09:48:06.009Z,948.44
2022-12-27T09:49:06.592Z,948.43
2022-12-27T09:50:07.085Z,948.43
2022-12-27T09:51:07.288Z,948.44
2022-12-27T09:52:08.252Z,948.42
2022-12-27T09:53:08.475Z,948.42
2022-12-27T09:54:08.894Z,948.4
2022-12-27T09:55:09.129Z,948.41
2022-12-27T09:56:10.060Z,948.36
2022-12-27T09:57:19.706Z,948.37
2022-12-27T09:58:11.137Z,948.38
2022-12-27T09:59:12.112Z,948.38
2022-12-27T10:00:13.009Z,948.37
2022-12-27T10:01:13.483Z,948.34
2022-12-27T10:02:13.802Z,948.37
2022-12-27T10:03:13.906Z,948.41
2022-12-27T10:04:14.308Z,948.4
2022-12-27T10:05:24.142Z,948.45
2022-12-27T10:06:24.435Z,948.46
2022-12-27T10:07:24.981Z,948.46
2022-12-27T10:08:25.472Z,948.47
2022-12-27T10:09:25.699Z,948.52
2022-12-27T10:10:26.661Z,948.46
2022-12-27T10:11:27.691Z,948.46
2022-12-27T10:12:31.545Z,948.45
2022-12-27T10:13:28.730Z,948.48
2022-12-27T10:14:29.644Z,948.52
2022-12-27T10:15:30.599Z,948.5
2022-12-27T10:16:30.802Z,948.49
2022-12-27T10:17:31.340Z,948.5
2022-12-27T10:18:32.217Z,948.48
2022-12-27T10:19:33.148Z,948.46
2022-12-27T10:20:34.129Z,948.4
2022-12-27T10:21:34.331Z,948.4
2022-12-27T10:22:34.859Z,948.43
2022-12-27T10:23:35.616Z,948.43
2022-12-27T10:24:35.946Z,948.48
2022-12-27T10:25:36.583Z,948.41
2022-12-27T10:26:37.176Z,948.42
2022-12-27T10:27:38.113Z,948.4
2022-12-27T10:28:38.351Z,948.47
2022-12-27T10:29:39.116Z,948.41
2022-12-27T10:30:39.355Z,948.39
2022-12-27T10:31:39.734Z,948.38
2022-12-27T10:32:40.045Z,948.39
2022-12-27T10:33:40.994Z,948.35
2022-12-27T10:34:41.336Z,948.36
2022-12-27T10:35:41.539Z,948.32
2022-12-27T10:36:41.759Z,948.27
2022-12-27T10:37:42.702Z,948.3
2022-12-27T10:38:42.953Z,948.27
2022-12-27T10:39:43.173Z,948.28
2022-12-27T10:40:43.582Z,948.25
2022-12-27T10:41:44.253Z,948.17
2022-12-27T10:42:44.619Z,948.18
2022-12-27T10:43:44.819Z,948.21
2022-12-27T10:44:45.313Z,948.23
2022-12-27T10:45:45.519Z,948.16
2022-12-27T10:46:46.542Z,948.2
2022-12-27T10:47:47.420Z,948.19
2022-12-27T10:49:19.237Z,948.17
2022-12-27T10:49:49.012Z,948.21
2022-12-27T10:50:49.241Z,948.23
2022-12-27T10:51:49.516Z,948.22
2022-12-27T10:52:55.755Z,948.22
2022-12-27T10:53:50.988Z,948.2
2022-12-27T10:54:51.360Z,948.21
2022-12-27T10:55:52.053Z,948.25
2022-12-27T10:56:52.759Z,948.23
2022-12-27T10:57:53.719Z,948.17
2022-12-27T10:58:58.667Z,948.16
2022-12-27T10:59:55.284Z,948.12
2022-12-27T11:00:55.856Z,948.13
2022-12-27T11:01:56.218Z,948.08
2022-12-27T11:02:57.010Z,948.08
2022-12-27T11:03:57.129Z,948.08
2022-12-27T11:04:57.532Z,948.12
2022-12-27T11:05:58.023Z,948.1
2022-12-27T11:06:58.949Z,948.14
2022-12-27T11:07:59.506Z,948.14
2022-12-27T11:08:59.727Z,948.15
2022-12-27T11:10:00.712Z,948.15
2022-12-27T11:11:01.159Z,948.12
2022-12-27T11:12:01.539Z,948.09
2022-12-27T11:13:02.480Z,948.04
2022-12-27T11:14:02.703Z,948.06
2022-12-27T11:15:03.027Z,948.05
2022-12-27T11:16:03.613Z,948.07
2022-12-27T11:17:04.532Z,948.09
2022-12-27T11:18:05.464Z,948.06
2022-12-27T11:19:05.855Z,948.05
2022-12-27T11:20:06.345Z,948.05
2022-12-27T11:21:06.572Z,948.05
2022-12-27T11:22:07.434Z,948.03
2022-12-27T11:23:08.400Z,947.98
2022-12-27T11:24:09.342Z,947.97
2022-12-27T11:25:10.101Z,947.97
2022-12-27T11:26:10.370Z,947.96
2022-12-27T11:27:11.035Z,947.96
2022-12-27T11:28:11.520Z,947.98
2022-12-27T11:29:12.163Z,947.97
2022-12-27T11:30:12.422Z,947.95
2022-12-27T11:31:12.694Z,947.94
2022-12-27T11:32:12.799Z,947.95
2022-12-27T11:33:13.008Z,947.93
2022-12-27T11:34:13.701Z,947.91
2022-12-27T11:35:14.768Z,947.95
2022-12-27T11:36:15.012Z,947.94
2022-12-27T11:37:15.508Z,947.98
2022-12-27T11:38:16.453Z,947.9
2022-12-27T11:39:16.663Z,947.87
2022-12-27T11:40:17.622Z,947.92
2022-12-27T11:41:21.982Z,947.87
2022-12-27T11:42:19.116Z,947.9
2022-12-27T11:43:19.614Z,947.86
2022-12-27T11:44:20.552Z,947.86
2022-12-27T11:45:20.904Z,947.83
2022-12-27T11:46:21.471Z,947.83
2022-12-27T11:47:21.970Z,947.81
2022-12-27T11:48:22.895Z,947.8
2022-12-27T11:49:23.103Z,947.78
2022-12-27T11:50:23.359Z,947.75
2022-12-27T11:51:23.867Z,947.76
2022-12-27T11:52:24.521Z,947.74
2022-12-27T11:53:25.193Z,947.67
2022-12-27T11:54:25.425Z,947.66
2022-12-27T11:55:26.142Z,947.7
2022-12-27T11:56:27.075Z,947.7
2022-12-27T11:57:27.322Z,947.67
2022-12-27T11:58:28.268Z,947.67
2022-12-27T11:59:29.183Z,947.63
2022-12-27T12:00:30.127Z,947.6
2022-12-27T12:01:31.104Z,947.61
2022-12-27T12:02:31.463Z,947.56
2022-12-27T12:03:32.520Z,947.57
2022-12-27T12:04:33.430Z,947.6
2022-12-27T12:05:34.312Z,947.56
2022-12-27T12:06:34.829Z,947.53
2022-12-27T12:07:35.506Z,947.52
2022-12-27T12:08:35.768Z,947.57
2022-12-27T12:09:36.250Z,947.55
2022-12-27T12:10:36.497Z,947.58
2022-12-27T12:11:36.898Z,947.59
2022-12-27T12:12:37.776Z,947.53
2022-12-27T12:13:38.019Z,947.53
2022-12-27T12:14:38.244Z,947.52
2022-12-27T12:15:38.928Z,947.52
2022-12-27T12:16:39.171Z,947.47
2022-12-27T12:17:39.639Z,947.45
2022-12-27T12:18:40.584Z,947.47
2022-12-27T12:19:40.898Z,947.44
2022-12-27T12:20:44.405Z,947.45
2022-12-27T12:21:42.252Z,947.42
2022-12-27T12:22:43.013Z,947.46
2022-12-27T12:23:43.531Z,947.46
2022-12-27T12:24:44.036Z,947.44
2022-12-27T12:25:44.362Z,947.44
2022-12-27T12:26:44.894Z,947.42
2022-12-27T12:27:45.515Z,947.49
2022-12-27T12:29:00.656Z,947.42
2022-12-27T12:29:46.158Z,947.43
2022-12-27T12:30:46.396Z,947.43
2022-12-27T12:31:46.936Z,947.43
2022-12-27T12:32:47.822Z,947.4
2022-12-27T12:33:48.869Z,947.43
2022-12-27T12:34:49.797Z,947.5
2022-12-27T12:35:50.864Z,947.51
2022-12-27T12:36:52.795Z,947.49
2022-12-27T12:37:51.246Z,947.48
2022-12-27T12:38:52.235Z,947.41
2022-12-27T12:39:52.877Z,947.39
2022-12-27T12:40:53.447Z,947.38